Time;durP1;ratioP1;P1;durP2;ratioP2;P2;SDS_P1;SDS_P2;PMS_P1;PMS_P2;Temp;Humidity;BMP_temperature;BMP_pressure;BME280_temperature;BME280_humidity;BME280_pressure;Samples;Min_cycle;Max_cycle;Signal;HPM_P1;HPM_P2
2023/01/23 00:00:16;;;;;;;36.80;18.85;;;4.20;99.90;;;;;;4092193;28;20045;-69
2023/01/23 00:02:17;;;;;;;35.78;19.35;;;4.20;99.90;;;;;;4096439;29;20043;-70
2023/01/23 00:04:18;;;;;;;43.30;19.17;;;4.20;99.90;;;;;;4095361;28;20398;-69
2023/01/23 00:06:19;;;;;;;35.13;19.48;;;4.20;99.90;;;;;;4106450;28;20031;-70
2023/01/23 00:08:20;;;;;;;38.58;20.58;;;4.30;99.90;;;;;;4099121;28;20056;-69
2023/01/23 00:10:21;;;;;;;33.10;18.45;;;4.20;99.90;;;;;;4094021;28;20391;-69
2023/01/23 00:12:21;;;;;;;33.22;18.17;;;4.20;99.90;;;;;;4078632;29;20052;-69
2023/01/23 00:14:22;;;;;;;38.50;19.58;;;4.20;99.90;;;;;;4095711;29;20513;-69
2023/01/23 00:16:25;;;;;;;44.40;19.95;;;4.20;99.90;;;;;;4094342;28;20417;-69
2023/01/23 00:18:25;;;;;;;39.35;19.08;;;4.20;99.90;;;;;;4096118;28;20047;-69
2023/01/23 00:20:26;;;;;;;34.85;18.85;;;4.20;99.90;;;;;;4094313;28;20054;-69
2023/01/23 00:22:27;;;;;;;36.15;18.67;;;4.20;99.90;;;;;;4095831;29;20402;-70
2023/01/23 00:24:27;;;;;;;37.83;18.98;;;4.20;99.90;;;;;;4095267;29;20114;-69
2023/01/23 00:26:31;;;;;;;34.35;19.75;;;4.20;99.90;;;;;;4094897;28;20046;-69
2023/01/23 00:28:33;;;;;;;30.70;17.80;;;4.20;99.90;;;;;;4095432;28;20120;-70
2023/01/23 00:30:33;;;;;;;40.63;19.55;;;4.20;99.90;;;;;;4093959;28;20123;-69
2023/01/23 00:32:34;;;;;;;40.95;19.63;;;4.20;99.90;;;;;;4097520;28;20027;-69
2023/01/23 00:34:34;;;;;;;37.55;19.20;;;4.20;99.90;;;;;;4100607;28;20042;-69
2023/01/23 00:36:38;;;;;;;38.80;19.85;;;4.20;99.90;;;;;;4101331;28;20039;-69
2023/01/23 00:38:40;;;;;;;35.88;18.00;;;4.20;99.90;;;;;;4099493;28;20070;-69
2023/01/23 00:40:40;;;;;;;36.60;20.13;;;4.20;99.90;;;;;;4099052;28;20066;-69
2023/01/23 00:42:41;;;;;;;34.67;18.25;;;4.20;99.90;;;;;;4098902;28;20035;-69
2023/01/23 00:44:41;;;;;;;37.47;20.27;;;4.30;99.90;;;;;;4097475;28;20036;-69
2023/01/23 00:46:42;;;;;;;42.88;19.02;;;4.20;99.90;;;;;;4096886;28;20057;-69
2023/01/23 00:48:42;;;;;;;37.15;19.08;;;4.20;99.90;;;;;;4098270;28;20039;-69
2023/01/23 00:50:43;;;;;;;36.70;19.25;;;4.20;99.90;;;;;;4100633;28;20043;-70
2023/01/23 00:52:44;;;;;;;34.55;18.88;;;4.10;99.90;;;;;;4098321;28;20066;-70
2023/01/23 00:54:44;;;;;;;35.00;18.20;;;4.10;99.90;;;;;;4102173;28;20119;-69
2023/01/23 00:56:45;;;;;;;37.35;19.13;;;4.10;99.90;;;;;;4103316;28;20040;-70
2023/01/23 00:58:46;;;;;;;35.60;19.27;;;4.20;99.90;;;;;;4097865;28;20110;-70
2023/01/23 01:00:46;;;;;;;37.60;18.92;;;4.20;99.90;;;;;;4084828;29;20040;-69
2023/01/23 01:02:47;;;;;;;37.80;19.20;;;4.10;99.90;;;;;;4080729;29;20456;-70
2023/01/23 01:04:48;;;;;;;34.33;18.05;;;3.90;99.90;;;;;;4101771;28;20049;-70
2023/01/23 01:06:48;;;;;;;41.70;19.15;;;3.90;99.90;;;;;;4066271;28;1097978;-70
2023/01/23 01:08:49;;;;;;;33.50;19.35;;;3.90;99.90;;;;;;4097330;28;20095;-70
2023/01/23 01:10:50;;;;;;;36.25;18.95;;;3.80;99.90;;;;;;4097837;28;20044;-69
2023/01/23 01:12:51;;;;;;;34.90;17.92;;;3.80;99.90;;;;;;4097903;28;20035;-69
2023/01/23 01:14:52;;;;;;;32.53;17.38;;;3.80;99.90;;;;;;4098508;29;20079;-69
2023/01/23 01:16:52;;;;;;;34.92;18.75;;;3.70;99.90;;;;;;4091976;28;20038;-70
2023/01/23 01:18:53;;;;;;;32.92;18.40;;;3.80;99.90;;;;;;4098574;28;20046;-70
2023/01/23 01:20:54;;;;;;;32.90;17.63;;;3.80;99.90;;;;;;4109123;28;20082;-70
2023/01/23 01:22:57;;;;;;;31.65;18.48;;;3.90;99.90;;;;;;4100576;28;20058;-69
2023/01/23 01:24:57;;;;;;;;;;;3.90;99.90;;;;;;4099550;29;20027;-69
2023/01/23 01:26:58;;;;;;;28.08;16.83;;;3.90;99.90;;;;;;4096843;28;19926;-70
2023/01/23 01:28:59;;;;;;;29.83;17.35;;;3.90;99.90;;;;;;4097757;28;20032;-69
2023/01/23 01:31:11;;;;;;;34.47;16.90;;;4.00;99.90;;;;;;4106126;28;20463;-69
2023/01/23 01:33:12;;;;;;;34.40;18.05;;;3.90;99.90;;;;;;4098296;28;20455;-69
2023/01/23 01:35:13;;;;;;;26.25;17.05;;;3.90;99.90;;;;;;4101041;28;20039;-69
2023/01/23 01:37:13;;;;;;;40.38;19.23;;;4.00;99.90;;;;;;4099455;28;20039;-69
2023/01/23 01:39:14;;;;;;;28.67;16.73;;;4.00;99.90;;;;;;4098746;28;20495;-69
2023/01/23 01:41:15;;;;;;;31.98;17.30;;;4.00;99.90;;;;;;4098215;29;20122;-71
2023/01/23 01:43:24;;;;;;;30.90;16.88;;;4.00;99.90;;;;;;4097895;28;20047;-70
2023/01/23 01:46:02;;;;;;;28.30;17.33;;;4.10;99.90;;;;;;4097579;29;20071;-69
2023/01/23 01:48:03;;;;;;;30.95;17.30;;;4.10;99.90;;;;;;4096181;28;20525;-69
2023/01/23 01:50:05;;;;;;;31.92;18.10;;;4.10;99.90;;;;;;4097436;28;20042;-70
2023/01/23 01:52:09;;;;;;;35.97;19.13;;;4.10;99.90;;;;;;4098058;28;20077;-69
2023/01/23 01:54:22;;;;;;;31.98;17.63;;;4.10;99.90;;;;;;4098424;28;20538;-69
2023/01/23 01:56:24;;;;;;;;;;;4.10;99.90;;;;;;4082846;28;20039;-69
2023/01/23 01:58:26;;;;;;;25.77;16.00;;;4.10;99.90;;;;;;4093095;28;19911;-69
2023/01/23 02:00:26;;;;;;;28.95;17.67;;;4.20;99.90;;;;;;4093711;28;20035;-69
2023/01/23 02:02:32;;;;;;;33.15;17.80;;;4.20;99.90;;;;;;4094385;28;20038;-69
2023/01/23 02:04:37;;;;;;;30.65;17.90;;;4.10;99.90;;;;;;4099592;28;20031;-70
2023/01/23 02:06:44;;;;;;;26.73;16.98;;;4.10;99.90;;;;;;4092546;28;20041;-69
2023/01/23 02:09:03;;;;;;;30.88;16.60;;;4.20;99.90;;;;;;4073231;29;20070;-70
2023/01/23 02:11:05;;;;;;;29.17;17.13;;;4.10;99.90;;;;;;4080388;29;20091;-70
2023/01/23 02:13:24;;;;;;;34.10;17.63;;;4.10;99.90;;;;;;4079018;29;20479;-69
2023/01/23 02:15:25;;;;;;;30.70;17.98;;;4.10;99.90;;;;;;4077175;29;20636;-69
2023/01/23 02:17:26;;;;;;;29.67;17.70;;;4.10;99.90;;;;;;4081955;28;20043;-69
2023/01/23 02:20:16;;;;;;;29.10;17.55;;;4.10;99.90;;;;;;4080713;28;20440;-70
2023/01/23 02:22:36;;;;;;;37.63;17.65;;;4.10;99.90;;;;;;4042014;29;20596;-69
2023/01/23 02:24:45;;;;;;;29.35;17.20;;;3.90;99.90;;;;;;4077124;29;20052;-69
2023/01/23 02:26:49;;;;;;;31.95;18.75;;;3.70;99.90;;;;;;4078292;29;20151;-70
2023/01/23 02:28:52;;;;;;;31.08;18.42;;;3.50;99.90;;;;;;4081126;28;20038;-70
2023/01/23 02:30:53;;;;;;;35.35;19.20;;;3.50;99.90;;;;;;4064026;29;20044;-70
2023/01/23 02:32:54;;;;;;;32.55;17.92;;;3.30;99.90;;;;;;4082238;29;20090;-70
2023/01/23 02:34:59;;;;;;;29.00;17.27;;;3.30;99.90;;;;;;4074704;29;20047;-69
2023/01/23 02:37:00;;;;;;;25.88;16.45;;;3.30;99.90;;;;;;4064565;29;20048;-70
2023/01/23 02:39:14;;;;;;;30.13;17.27;;;3.40;99.90;;;;;;4079705;28;20119;-70
2023/01/23 02:41:16;;;;;;;31.95;17.27;;;3.30;99.90;;;;;;4096046;29;20048;-69
2023/01/23 02:43:21;;;;;;;28.73;17.08;;;3.30;99.90;;;;;;4079347;29;20070;-69
2023/01/23 02:45:22;;;;;;;30.08;16.65;;;3.30;99.90;;;;;;4083951;29;20043;-70
2023/01/23 02:47:23;;;;;;;26.60;16.88;;;3.30;99.90;;;;;;4085997;28;20475;-69
2023/01/23 02:49:23;;;;;;;27.92;16.58;;;3.40;99.90;;;;;;4080083;29;20509;-69
2023/01/23 02:51:24;;;;;;;28.38;17.85;;;3.40;99.90;;;;;;4083325;29;20040;-70
2023/01/23 02:53:25;;;;;;;25.98;15.65;;;3.30;99.90;;;;;;4079905;29;20044;-69
2023/01/23 02:55:29;;;;;;;23.92;15.38;;;3.30;99.90;;;;;;4053670;29;20044;-69
2023/01/23 02:57:29;;;;;;;24.40;16.35;;;3.40;99.90;;;;;;4062863;29;20415;-69
2023/01/23 03:01:52;;;;;;;26.45;15.85;;;3.40;99.90;;;;;;4077215;29;20050;-69
2023/01/23 03:03:55;;;;;;;24.90;14.60;;;3.40;99.90;;;;;;4091359;29;20082;-69
2023/01/23 03:05:58;;;;;;;22.70;14.27;;;3.40;99.90;;;;;;4091570;29;20043;-69
2023/01/23 03:07:58;;;;;;;24.42;14.40;;;3.50;99.90;;;;;;4079272;29;20483;-70
2023/01/23 03:09:59;;;;;;;24.60;14.98;;;3.50;99.90;;;;;;4081114;29;20119;-69
2023/01/23 03:12:00;;;;;;;22.40;13.75;;;3.60;99.90;;;;;;4079733;29;20035;-70
2023/01/23 03:14:00;;;;;;;25.80;14.77;;;3.60;99.90;;;;;;4064782;29;20044;-70
2023/01/23 03:16:01;;;;;;;23.95;15.60;;;3.70;99.90;;;;;;4094099;29;20047;-70
2023/01/23 03:18:01;;;;;;;23.35;14.93;;;3.70;99.90;;;;;;4082397;29;20035;-70
2023/01/23 03:20:04;;;;;;;23.48;15.43;;;3.70;99.90;;;;;;4080861;28;20035;-71
2023/01/23 03:22:06;;;;;;;24.23;15.10;;;3.80;99.90;;;;;;4095254;29;20434;-70
2023/01/23 03:24:09;;;;;;;24.15;15.00;;;3.80;99.90;;;;;;4097290;29;20047;-70
2023/01/23 03:26:10;;;;;;;26.30;15.98;;;3.90;99.90;;;;;;4077027;29;20115;-70
2023/01/23 03:30:12;;;;;;;23.75;15.07;;;3.90;99.90;;;;;;4080372;28;20039;-70
2023/01/23 03:30:31;;;;;;;24.88;15.55;;;4.00;99.90;;;;;;4079835;29;20047;-69
2023/01/23 03:32:32;;;;;;;29.58;16.35;;;4.00;99.90;;;;;;4079608;29;20043;-69
2023/01/23 03:34:34;;;;;;;22.98;14.75;;;4.10;99.90;;;;;;4092674;29;20093;-69
2023/01/23 03:36:36;;;;;;;25.02;14.75;;;4.10;99.90;;;;;;4080652;29;20043;-69
2023/01/23 03:38:37;;;;;;;26.35;15.68;;;4.00;99.90;;;;;;4074414;28;20509;-69
2023/01/23 03:42:57;;;;;;;28.77;16.02;;;4.00;99.90;;;;;;4080175;29;20032;-69
2023/01/23 03:44:57;;;;;;;25.38;14.65;;;3.90;99.90;;;;;;4095115;29;20028;-69
2023/01/23 03:46:58;;;;;;;25.35;15.68;;;3.90;99.90;;;;;;4090119;29;20051;-70
2023/01/23 03:48:59;;;;;;;25.25;15.80;;;3.90;99.90;;;;;;4067997;29;20055;-70
2023/01/23 03:50:59;;;;;;;24.33;15.27;;;3.90;99.90;;;;;;4073752;29;20044;-69
2023/01/23 03:53:00;;;;;;;25.75;14.93;;;3.90;99.90;;;;;;4081856;29;20487;-69
2023/01/23 03:55:01;;;;;;;25.50;16.05;;;3.90;99.90;;;;;;4072687;29;20040;-70
2023/01/23 03:57:02;;;;;;;28.38;15.95;;;3.90;99.90;;;;;;4079073;29;20050;-70
2023/01/23 03:59:03;;;;;;;23.85;14.75;;;3.90;99.90;;;;;;4077183;28;20047;-70
2023/01/23 04:01:08;;;;;;;23.85;15.25;;;3.90;99.90;;;;;;4071912;29;20090;-69
2023/01/23 04:03:09;;;;;;;24.52;14.80;;;3.90;99.90;;;;;;4083258;28;20399;-70
2023/01/23 04:05:09;;;;;;;28.25;15.57;;;3.90;99.90;;;;;;4090845;28;20405;-70
2023/01/23 04:07:10;;;;;;;22.83;14.25;;;3.80;99.90;;;;;;4096425;28;20051;-70
2023/01/23 04:09:11;;;;;;;22.67;14.20;;;3.70;99.90;;;;;;4095421;28;20031;-69
2023/01/23 04:11:12;;;;;;;22.50;13.65;;;3.70;99.90;;;;;;4094998;28;20494;-70
2023/01/23 04:13:13;;;;;;;23.38;14.70;;;3.70;99.90;;;;;;4095238;29;20042;-70
2023/01/23 04:15:14;;;;;;;24.33;14.40;;;3.70;99.90;;;;;;4094661;28;20058;-70
2023/01/23 04:17:15;;;;;;;28.85;16.40;;;3.60;99.90;;;;;;4089321;28;20532;-70
2023/01/23 04:19:18;;;;;;;26.85;16.40;;;3.40;99.90;;;;;;4098118;28;20040;-69
2023/01/23 04:21:19;;;;;;;28.17;15.27;;;3.40;99.90;;;;;;4094285;28;20039;-69
2023/01/23 04:23:20;;;;;;;23.25;15.80;;;3.30;99.90;;;;;;4096204;28;20039;-69
2023/01/23 04:25:21;;;;;;;28.02;16.48;;;3.20;99.90;;;;;;4094821;28;20087;-70
2023/01/23 04:27:22;;;;;;;28.17;16.67;;;3.10;99.90;;;;;;4093385;28;20043;-70
2023/01/23 04:29:25;;;;;;;26.20;16.63;;;3.00;99.90;;;;;;4086777;28;20106;-70
2023/01/23 04:31:25;;;;;;;25.70;15.63;;;2.90;99.90;;;;;;4095790;29;20039;-70
2023/01/23 04:33:29;;;;;;;24.02;14.55;;;2.90;99.90;;;;;;4093895;28;20135;-69
2023/01/23 04:35:29;;;;;;;30.27;17.50;;;2.90;99.90;;;;;;4078602;29;20052;-70
2023/01/23 04:37:30;;;;;;;27.77;16.80;;;2.80;99.90;;;;;;4097819;28;20490;-69
2023/01/23 04:39:35;;;;;;;26.67;15.05;;;2.80;99.90;;;;;;4088320;28;20043;-69
2023/01/23 04:41:35;;;;;;;30.73;17.05;;;2.90;99.90;;;;;;4095137;28;20048;-70
2023/01/23 04:43:36;;;;;;;27.55;15.23;;;2.90;99.90;;;;;;4093127;28;20090;-69
2023/01/23 04:45:37;;;;;;;25.05;15.95;;;2.90;99.90;;;;;;4095125;29;20039;-69
2023/01/23 04:47:40;;;;;;;28.48;15.82;;;2.90;99.90;;;;;;4093887;28;20394;-69
2023/01/23 04:49:42;;;;;;;29.88;16.13;;;2.90;99.90;;;;;;4095882;28;20038;-69
2023/01/23 04:51:43;;;;;;;27.13;16.15;;;2.90;99.90;;;;;;4096041;28;20051;-70
2023/01/23 04:53:43;;;;;;;25.38;15.75;;;2.80;99.90;;;;;;4094607;28;20042;-70
2023/01/23 04:55:47;;;;;;;28.48;15.55;;;2.90;99.90;;;;;;4094001;28;20448;-69
2023/01/23 04:57:48;;;;;;;25.60;16.40;;;2.90;99.90;;;;;;4074942;29;20042;-69
2023/01/23 04:59:48;;;;;;;26.05;15.73;;;2.90;99.90;;;;;;4101824;28;20366;-69
2023/01/23 05:01:49;;;;;;;28.08;16.13;;;3.00;99.90;;;;;;4089611;28;20661;-69
2023/01/23 05:03:51;;;;;;;24.05;14.82;;;2.90;99.90;;;;;;4090051;28;20054;-69
2023/01/23 05:05:52;;;;;;;23.67;14.25;;;3.00;99.90;;;;;;4095201;28;20114;-68
2023/01/23 05:07:55;;;;;;;26.77;16.73;;;3.00;99.90;;;;;;4083219;28;20089;-69
2023/01/23 05:09:56;;;;;;;30.02;15.85;;;3.00;99.90;;;;;;4093608;28;20039;-69
2023/01/23 05:11:56;;;;;;;25.33;15.07;;;3.00;99.90;;;;;;4092032;28;20039;-69
2023/01/23 05:13:57;;;;;;;24.48;15.20;;;3.00;99.90;;;;;;4093650;28;20027;-69
2023/01/23 05:15:58;;;;;;;26.80;15.73;;;3.00;99.90;;;;;;4091019;28;20134;-69
2023/01/23 05:17:59;;;;;;;22.77;14.80;;;3.00;99.90;;;;;;4080333;29;20108;-69
2023/01/23 05:19:59;;;;;;;22.00;14.57;;;3.10;99.90;;;;;;4075513;29;20039;-69
2023/01/23 05:22:00;;;;;;;23.67;14.85;;;3.10;99.90;;;;;;4094922;28;20466;-69
2023/01/23 05:24:01;;;;;;;29.55;16.17;;;3.20;99.90;;;;;;4098981;28;20450;-68
2023/01/23 05:26:01;;;;;;;21.85;13.98;;;3.20;99.90;;;;;;4098318;28;20467;-70
2023/01/23 05:28:02;;;;;;;21.63;13.60;;;3.20;99.90;;;;;;4097966;28;20043;-70
2023/01/23 05:30:03;;;;;;;22.48;14.35;;;3.20;99.90;;;;;;4098620;28;20394;-71
2023/01/23 05:32:04;;;;;;;20.83;13.13;;;3.30;99.90;;;;;;4080549;28;20044;-70
2023/01/23 05:34:05;;;;;;;26.50;14.98;;;3.40;99.90;;;;;;4085670;28;20347;-70
2023/01/23 05:36:06;;;;;;;23.80;14.35;;;3.40;99.90;;;;;;4105062;28;20083;-70
2023/01/23 05:38:06;;;;;;;23.38;14.45;;;3.40;99.90;;;;;;4098140;28;20467;-70
2023/01/23 05:40:10;;;;;;;26.40;16.08;;;3.50;99.90;;;;;;4100360;28;20039;-71
2023/01/23 05:42:10;;;;;;;26.83;15.18;;;3.40;99.90;;;;;;4083364;28;20142;-70
2023/01/23 05:44:11;;;;;;;25.35;15.43;;;3.30;99.90;;;;;;4096142;28;20070;-70
2023/01/23 05:46:11;;;;;;;27.08;16.02;;;3.30;99.90;;;;;;4095442;28;20035;-70
2023/01/23 05:48:12;;;;;;;25.83;16.00;;;3.30;99.90;;;;;;4095957;28;20975;-70
2023/01/23 05:50:16;;;;;;;26.65;15.82;;;3.30;99.90;;;;;;4097075;28;20156;-70
2023/01/23 05:52:17;;;;;;;27.85;17.55;;;3.30;99.90;;;;;;4101263;28;20047;-70
2023/01/23 05:54:18;;;;;;;28.10;17.00;;;3.30;99.90;;;;;;4099182;28;20097;-70
2023/01/23 05:56:18;;;;;;;30.92;18.13;;;3.20;99.90;;;;;;4096885;29;20051;-69
2023/01/23 05:58:19;;;;;;;33.45;18.15;;;3.20;99.90;;;;;;4096757;28;20114;-69
2023/01/23 06:00:20;;;;;;;31.50;18.27;;;3.20;99.90;;;;;;4090302;28;20035;-69
2023/01/23 06:02:21;;;;;;;29.90;16.90;;;3.20;99.90;;;;;;4105628;28;20040;-70
2023/01/23 06:04:21;;;;;;;30.67;17.77;;;3.30;99.90;;;;;;4067211;29;20043;-69
2023/01/23 06:06:22;;;;;;;29.63;16.17;;;3.20;99.90;;;;;;4091229;28;21153;-69
2023/01/23 06:08:22;;;;;;;29.65;16.60;;;3.30;99.90;;;;;;4092824;28;20554;-69
2023/01/23 06:10:23;;;;;;;30.50;16.45;;;3.30;99.90;;;;;;4100978;28;20055;-69
2023/01/23 06:12:24;;;;;;;25.20;14.52;;;3.20;99.90;;;;;;4101803;28;20040;-69
2023/01/23 06:14:24;;;;;;;26.10;14.70;;;3.30;99.90;;;;;;4091990;28;20139;-70
2023/01/23 06:16:25;;;;;;;24.40;14.23;;;3.30;99.90;;;;;;4094515;28;20047;-70
2023/01/23 06:18:26;;;;;;;25.63;15.45;;;3.40;99.90;;;;;;4080967;28;20047;-70
2023/01/23 06:20:26;;;;;;;25.90;14.50;;;3.30;99.90;;;;;;4090877;28;20043;-69
2023/01/23 06:22:27;;;;;;;21.40;13.85;;;3.40;99.90;;;;;;4087439;28;20118;-70
2023/01/23 06:24:28;;;;;;;24.08;13.77;;;3.40;99.90;;;;;;4074867;29;20048;-69
2023/01/23 06:26:29;;;;;;;22.17;13.32;;;3.40;99.90;;;;;;4090210;28;20526;-69
2023/01/23 06:28:29;;;;;;;22.85;14.35;;;3.40;99.90;;;;;;4088117;28;20039;-69
2023/01/23 06:30:30;;;;;;;24.48;15.30;;;3.40;99.90;;;;;;4090952;28;20035;-69
2023/01/23 06:32:31;;;;;;;22.75;14.48;;;3.20;99.90;;;;;;4086798;28;20127;-68
2023/01/23 06:34:31;;;;;;;23.15;13.70;;;3.30;99.90;;;;;;4074429;29;20059;-69
2023/01/23 06:36:33;;;;;;;23.55;14.07;;;3.30;99.90;;;;;;4077201;28;20454;-70
2023/01/23 06:38:36;;;;;;;26.00;15.65;;;3.20;99.90;;;;;;4087872;28;20039;-69
2023/01/23 06:40:37;;;;;;;24.27;14.18;;;3.20;99.90;;;;;;4058010;29;20032;-69
2023/01/23 06:42:41;;;;;;;24.02;14.73;;;3.10;99.90;;;;;;4090074;28;20048;-69
2023/01/23 06:44:42;;;;;;;22.38;13.77;;;3.20;99.90;;;;;;4088689;28;20084;-69
2023/01/23 06:46:42;;;;;;;25.45;15.95;;;3.20;99.90;;;;;;4079413;28;20116;-68
2023/01/23 06:48:43;;;;;;;25.55;15.70;;;3.20;99.90;;;;;;4089153;28;20047;-69
2023/01/23 06:50:43;;;;;;;24.13;14.75;;;3.20;99.90;;;;;;4086295;28;20522;-69
2023/01/23 06:52:44;;;;;;;25.08;15.10;;;3.30;99.90;;;;;;4088264;28;20039;-69
2023/01/23 06:54:45;;;;;;;27.17;16.02;;;3.30;99.90;;;;;;4089086;28;20383;-69
2023/01/23 06:56:45;;;;;;;27.05;16.40;;;3.20;99.90;;;;;;4088380;28;20046;-69
2023/01/23 06:58:47;;;;;;;26.95;16.30;;;3.20;99.90;;;;;;4073764;28;20687;-69
2023/01/23 07:00:48;;;;;;;28.92;16.77;;;3.20;99.90;;;;;;4079508;28;20042;-69
2023/01/23 07:02:49;;;;;;;28.10;17.08;;;3.20;99.90;;;;;;4076080;28;20035;-69
2023/01/23 07:04:50;;;;;;;30.98;18.25;;;3.20;99.90;;;;;;4089110;28;20483;-69
2023/01/23 07:06:50;;;;;;;28.98;17.58;;;3.10;99.90;;;;;;4089341;28;20106;-69
2023/01/23 07:08:51;;;;;;;27.05;16.20;;;3.10;99.90;;;;;;4090744;28;20040;-69
2023/01/23 07:10:52;;;;;;;28.73;16.02;;;3.10;99.90;;;;;;4082572;28;20043;-69
2023/01/23 07:12:52;;;;;;;28.58;16.35;;;3.00;99.90;;;;;;4092314;28;20538;-70
2023/01/23 07:14:53;;;;;;;26.45;16.20;;;3.10;99.90;;;;;;4093031;28;20070;-69
2023/01/23 07:16:54;;;;;;;29.23;15.95;;;3.10;99.90;;;;;;4090025;28;20276;-70
2023/01/23 07:18:57;;;;;;;27.67;17.45;;;3.10;99.90;;;;;;4087902;28;20047;-70
2023/01/23 07:20:59;;;;;;;26.70;15.93;;;3.00;99.90;;;;;;4091566;28;20063;-69
2023/01/23 07:23:00;;;;;;;26.83;15.75;;;3.10;99.90;;;;;;4090916;28;20043;-69
2023/01/23 07:25:01;;;;;;;28.33;16.65;;;3.00;99.90;;;;;;4091953;28;20405;-70
2023/01/23 07:27:01;;;;;;;24.63;15.27;;;3.00;99.90;;;;;;4089747;28;20963;-70
2023/01/23 07:29:02;;;;;;;27.60;15.45;;;3.10;99.90;;;;;;4090598;28;20043;-70
2023/01/23 07:31:04;;;;;;;27.80;15.90;;;3.10;99.90;;;;;;4091107;28;20134;-70
2023/01/23 07:33:05;;;;;;;28.65;16.05;;;3.10;99.90;;;;;;4091550;28;20434;-69
2023/01/23 07:35:06;;;;;;;23.17;14.40;;;3.10;99.90;;;;;;4090675;28;20054;-70
2023/01/23 07:37:07;;;;;;;25.98;15.75;;;3.10;99.90;;;;;;4088579;28;20510;-70
2023/01/23 07:39:08;;;;;;;26.70;15.98;;;3.10;99.90;;;;;;4091910;28;20043;-69
2023/01/23 07:41:08;;;;;;;25.83;15.38;;;3.10;99.90;;;;;;4091993;28;20122;-70
2023/01/23 07:43:09;;;;;;;25.92;15.50;;;3.10;99.90;;;;;;4093788;28;20482;-69
2023/01/23 07:45:12;;;;;;;27.70;16.48;;;3.10;99.90;;;;;;4088909;28;20095;-70
2023/01/23 07:47:13;;;;;;;24.33;14.27;;;3.10;99.90;;;;;;4087023;28;20047;-69
2023/01/23 07:49:14;;;;;;;26.88;15.32;;;3.10;99.90;;;;;;4091041;28;20059;-70
2023/01/23 07:51:14;;;;;;;24.42;14.90;;;3.10;99.90;;;;;;4091106;28;20071;-70
2023/01/23 07:53:15;;;;;;;28.10;15.77;;;3.20;99.90;;;;;;4074916;29;20035;-69
2023/01/23 07:55:16;;;;;;;28.65;15.80;;;3.10;99.90;;;;;;4090445;28;20097;-68
2023/01/23 07:57:16;;;;;;;25.63;16.10;;;3.10;99.90;;;;;;4090087;28;20398;-69
2023/01/23 07:59:17;;;;;;;26.50;15.98;;;3.10;99.90;;;;;;4088708;28;20031;-69
2023/01/23 08:01:20;;;;;;;26.45;15.30;;;3.10;99.90;;;;;;4088607;28;20079;-68
2023/01/23 08:03:21;;;;;;;27.35;16.50;;;3.10;99.90;;;;;;4090043;28;20047;-68
2023/01/23 08:05:21;;;;;;;27.33;15.90;;;3.10;99.90;;;;;;4090937;28;21519;-68
2023/01/23 08:07:22;;;;;;;25.40;15.05;;;3.10;99.90;;;;;;4083338;28;20082;-69
2023/01/23 08:09:23;;;;;;;27.67;15.57;;;3.10;99.90;;;;;;4076216;29;20054;-69
2023/01/23 08:11:25;;;;;;;28.83;16.00;;;3.10;99.90;;;;;;4076027;29;20122;-68
2023/01/23 08:13:26;;;;;;;25.75;15.57;;;3.10;99.90;;;;;;4067551;29;20488;-70
2023/01/23 08:15:26;;;;;;;24.65;15.13;;;3.00;99.90;;;;;;4056999;29;20083;-70
2023/01/23 08:17:27;;;;;;;28.52;15.45;;;3.10;99.90;;;;;;4061182;29;20040;-69
2023/01/23 08:19:27;;;;;;;26.92;15.35;;;3.10;99.90;;;;;;4057781;29;20161;-69
2023/01/23 08:21:28;;;;;;;26.13;15.73;;;3.10;99.90;;;;;;4062003;29;20048;-69
2023/01/23 08:23:31;;;;;;;25.52;15.15;;;3.10;99.90;;;;;;4064812;29;20145;-68
2023/01/23 08:25:31;;;;;;;29.33;16.40;;;3.10;99.90;;;;;;4062797;29;20045;-68
2023/01/23 08:27:32;;;;;;;26.48;15.13;;;3.10;99.90;;;;;;4071060;28;20130;-68
2023/01/23 08:29:32;;;;;;;27.15;15.75;;;3.10;99.90;;;;;;4073556;29;20035;-69
2023/01/23 08:31:34;;;;;;;26.00;15.27;;;3.20;99.90;;;;;;4072275;29;20456;-69
2023/01/23 08:33:36;;;;;;;26.80;15.60;;;3.10;99.90;;;;;;4075400;29;20047;-68
2023/01/23 08:35:37;;;;;;;23.67;13.82;;;3.10;99.90;;;;;;4072819;29;20058;-68
2023/01/23 08:37:39;;;;;;;26.65;15.57;;;3.10;99.90;;;;;;4068986;29;20771;-68
2023/01/23 08:39:40;;;;;;;;;;;3.20;99.90;;;;;;4062538;29;20035;-69
2023/01/23 08:41:41;;;;;;;25.55;14.80;;;3.20;99.90;;;;;;4054809;29;19915;-69
2023/01/23 08:43:41;;;;;;;25.23;14.27;;;3.20;99.90;;;;;;4071086;29;20048;-68
2023/01/23 08:45:55;;;;;;;26.50;14.80;;;3.20;99.90;;;;;;4071693;29;20102;-68
2023/01/23 08:47:56;;;;;;;28.75;15.48;;;3.20;99.90;;;;;;4072229;29;20050;-69
2023/01/23 08:49:57;;;;;;;24.65;13.35;;;3.20;99.90;;;;;;4072389;29;20043;-69
2023/01/23 08:51:58;;;;;;;25.83;14.02;;;3.20;99.90;;;;;;4071358;29;20506;-69
2023/01/23 08:53:59;;;;;;;24.87;14.13;;;3.20;99.90;;;;;;4059624;29;20044;-69
2023/01/23 08:56:01;;;;;;;24.63;13.95;;;3.20;99.90;;;;;;4067452;29;20370;-69
2023/01/23 08:58:02;;;;;;;25.73;14.93;;;3.30;99.90;;;;;;4076206;28;20055;-69
2023/01/23 09:00:03;;;;;;;27.38;15.15;;;3.30;99.90;;;;;;4067172;29;20108;-69
2023/01/23 09:02:04;;;;;;;28.63;15.65;;;3.30;99.90;;;;;;4075026;29;20399;-69
2023/01/23 09:04:05;;;;;;;23.35;13.48;;;3.40;99.90;;;;;;4076207;29;20032;-69
2023/01/23 09:06:05;;;;;;;28.85;16.20;;;3.40;99.90;;;;;;4075864;29;20395;-69
2023/01/23 09:08:06;;;;;;;27.58;15.68;;;3.40;99.90;;;;;;4088074;28;20137;-68
2023/01/23 09:10:07;;;;;;;26.48;15.05;;;3.40;99.90;;;;;;4092034;28;20518;-68
2023/01/23 09:12:08;;;;;;;30.55;16.70;;;3.40;99.90;;;;;;4089205;28;20040;-69
2023/01/23 09:14:09;;;;;;;27.27;15.65;;;3.40;99.90;;;;;;4089134;28;20074;-68
2023/01/23 09:16:09;;;;;;;31.05;16.35;;;3.50;99.90;;;;;;4086860;28;20479;-69
2023/01/23 09:18:10;;;;;;;30.20;15.98;;;3.40;99.90;;;;;;4091198;28;20122;-69
2023/01/23 09:20:11;;;;;;;28.02;15.30;;;3.40;99.90;;;;;;4089190;28;20669;-68
2023/01/23 09:22:11;;;;;;;27.30;14.95;;;3.50;99.90;;;;;;4091817;28;20050;-69
2023/01/23 09:24:12;;;;;;;27.92;15.32;;;3.50;99.90;;;;;;4091861;28;20075;-68
2023/01/23 09:26:14;;;;;;;28.25;14.95;;;3.50;99.90;;;;;;4090300;28;20054;-69
2023/01/23 09:28:14;;;;;;;32.37;15.70;;;3.50;99.90;;;;;;4091624;28;20047;-69
2023/01/23 09:30:15;;;;;;;30.48;16.58;;;3.50;99.90;;;;;;4070962;29;20359;-69
2023/01/23 09:32:16;;;;;;;29.58;16.05;;;3.50;99.90;;;;;;4093925;28;20049;-69
2023/01/23 09:34:17;;;;;;;33.10;16.80;;;3.50;99.90;;;;;;4090251;28;20039;-69
2023/01/23 09:36:18;;;;;;;32.15;16.85;;;3.50;99.90;;;;;;4091003;28;20094;-69
2023/01/23 09:38:19;;;;;;;36.22;17.38;;;3.50;99.90;;;;;;4090101;28;20043;-69
2023/01/23 09:40:22;;;;;;;28.55;15.93;;;3.40;99.90;;;;;;4088786;28;20043;-69
2023/01/23 09:42:31;;;;;;;31.00;16.52;;;3.50;99.90;;;;;;4088531;28;20137;-69
2023/01/23 09:44:38;;;;;;;28.15;15.02;;;3.50;99.90;;;;;;4074634;28;20050;-69
2023/01/23 09:46:50;;;;;;;30.15;15.95;;;3.50;99.90;;;;;;4091103;28;20481;-69
2023/01/23 09:49:16;;;;;;;31.53;17.13;;;3.50;99.90;;;;;;4090170;28;20114;-68
2023/01/23 09:51:16;;;;;;;31.80;17.58;;;3.50;99.90;;;;;;4090132;28;20370;-68
2023/01/23 09:53:21;;;;;;;34.95;19.27;;;3.50;99.90;;;;;;4091276;28;20028;-68
2023/01/23 09:55:47;;;;;;;31.83;17.35;;;3.50;99.90;;;;;;4089500;28;20051;-68
2023/01/23 09:57:56;;;;;;;35.67;20.05;;;3.50;99.90;;;;;;4091987;28;20063;-69
2023/01/23 10:00:12;;;;;;;36.38;20.52;;;3.50;99.90;;;;;;4086647;28;20040;-69
2023/01/23 10:02:20;;;;;;;37.80;19.92;;;3.50;99.90;;;;;;4088928;28;20043;-68
2023/01/23 10:04:20;;;;;;;33.08;19.05;;;3.50;99.90;;;;;;4088917;28;20047;-69
2023/01/23 10:06:28;;;;;;;36.55;19.08;;;3.50;99.90;;;;;;4088453;28;20032;-69
2023/01/23 10:09:09;;;;;;;33.80;19.08;;;3.50;99.90;;;;;;4089419;28;20767;-69
2023/01/23 10:11:41;;;;;;;34.70;19.23;;;3.50;99.90;;;;;;4088162;28;20109;-69
2023/01/23 10:14:12;;;;;;;38.25;20.13;;;3.60;99.90;;;;;;4088975;28;20035;-68
2023/01/23 10:16:45;;;;;;;40.63;20.48;;;3.50;99.90;;;;;;4091276;28;20047;-68
2023/01/23 10:19:10;;;;;;;37.90;19.70;;;3.60;99.90;;;;;;4090412;28;20517;-69
2023/01/23 10:21:37;;;;;;;34.58;19.85;;;3.60;99.90;;;;;;4089671;28;20087;-69
2023/01/23 10:24:07;;;;;;;39.63;20.83;;;3.60;99.90;;;;;;4046149;28;20055;-69
2023/01/23 10:26:23;;;;;;;34.63;19.00;;;3.60;99.90;;;;;;4089419;28;20040;-69
2023/01/23 10:28:33;;;;;;;30.95;17.73;;;3.60;99.90;;;;;;4090796;28;20035;-68
2023/01/23 10:30:37;;;;;;;33.10;18.60;;;3.50;99.90;;;;;;4090816;28;20039;-69
2023/01/23 10:32:59;;;;;;;32.75;18.27;;;3.60;99.90;;;;;;4088565;28;20046;-69
2023/01/23 10:35:11;;;;;;;31.63;18.05;;;3.60;99.90;;;;;;4086099;28;20039;-68
2023/01/23 10:37:49;;;;;;;29.65;17.77;;;3.60;99.90;;;;;;4087999;28;20390;-68